| Date | Time | Temp. (oF) | Dew Point (oF) | Rel. Hum. (%) | Press. (in.) | Wind Dir. | Wind Speed (mph) | Hourly Rainfall (in.) |
|
|---|---|---|---|---|---|---|---|---|---|
| 1 | 12/12 | 00:00 | 35 | 29 | 79 | 29.68 | SSW | 4 | 0.00 |
| 2 | 12/11 | 23:00 | 35 | 28 | 77 | 29.67 | WSW | 8 | 0.00 |
| 3 | 12/11 | 22:00 | 35 | 28 | 76 | 29.65 | S | 11 | 0.00 |
| 4 | 12/11 | 21:00 | 34 | 28 | 79 | 29.65 | WSW | 4 | 0.00 |
| 5 | 12/11 | 20:00 | 33 | 28 | 82 | 29.66 | SSW | 4 | 0.00 |
| 6 | 12/11 | 19:00 | 35 | 29 | 79 | 29.66 | SW | 2 | 0.00 |
| 7 | 12/11 | 18:00 | 35 | 28 | 78 | 29.65 | SW | 3 | 0.00 |
| 8 | 12/11 | 17:00 | 36 | 27 | 71 | 29.64 | SSW | 6 | 0.00 |
| 9 | 12/11 | 16:00 | 38 | 28 | 67 | 29.61 | WSW | 8 | 0.00 |
| 10 | 12/11 | 15:00 | 39 | 28 | 67 | 29.59 | SSW | 5 | 0.00 |
| 11 | 12/11 | 14:00 | 37 | 28 | 70 | 29.60 | SW | 7 | 0.00 |
| 12 | 12/11 | 13:00 | 34 | 28 | 79 | 29.60 | WSW | 3 | 0.00 |
| 13 | 12/11 | 12:00 | 30 | 27 | 92 | 29.61 | S | 2 | 0.00 |
| 14 | 12/11 | 11:00 | 27 | 26 | 99 | 29.64 | E | 2 | 0.00 |
| 15 | 12/11 | 10:00 | 23 | 23 | 100 | 29.64 | ENE | 3 | 0.00 |
| 16 | 12/11 | 09:00 | 17 | 17 | 100 | 29.66 | ESE | 1 | 0.00 |
| 17 | 12/11 | 08:00 | 12 | 12 | 100 | 29.66 | N | 0 | 0.00 |
| 18 | 12/11 | 07:00 | 13 | 13 | 100 | 29.65 | N | 0 | 0.00 |
| 19 | 12/11 | 06:00 | 14 | 14 | 100 | 29.64 | NNW | 1 | 0.00 |
| 20 | 12/11 | 05:00 | 15 | 14 | 100 | 29.64 | NNW | 4 | 0.00 |
| 21 | 12/11 | 04:00 | 18 | 18 | 100 | 29.66 | WNW | 0 | 0.00 |
| 22 | 12/11 | 03:00 | 18 | 17 | 99 | 29.68 | NNW | 0 | 0.00 |
| 23 | 12/11 | 02:00 | 20 | 19 | 99 | 29.69 | NNW | 0 | 0.00 |
| 24 | 12/11 | 01:00 | 22 | 21 | 98 | 29.70 | ESE | 1 | 0.00 |